createdAt,value
2022-11-20T00:01:12.364Z,16.42
2022-11-20T00:03:42.156Z,17.85
2022-11-20T00:06:13.973Z,18.00
2022-11-20T00:08:43.104Z,18.77
2022-11-20T00:11:16.586Z,18.60
2022-11-20T00:13:46.476Z,17.25
2022-11-20T00:16:17.613Z,17.33
2022-11-20T00:18:46.724Z,18.52
2022-11-20T00:21:18.479Z,17.15
2022-11-20T00:23:47.510Z,16.88
2022-11-20T00:26:22.363Z,21.30
2022-11-20T00:28:53.591Z,20.35
2022-11-20T00:31:22.633Z,18.23
2022-11-20T00:33:51.494Z,21.25
2022-11-20T00:36:21.997Z,18.33
2022-11-20T00:38:54.625Z,19.27
2022-11-20T00:41:25.912Z,18.98
2022-11-20T00:43:55.755Z,18.55
2022-11-20T00:46:26.294Z,19.38
2022-11-20T00:48:55.254Z,21.77
2022-11-20T00:51:27.514Z,16.17
2022-11-20T00:53:58.373Z,17.10
2022-11-20T00:56:31.291Z,20.52
2022-11-20T00:59:02.601Z,18.50
2022-11-20T01:04:02.923Z,19.13
2022-11-20T01:06:33.968Z,17.70
2022-11-20T01:09:07.100Z,17.63
2022-11-20T01:11:39.624Z,19.42
2022-11-20T01:14:12.053Z,22.90
2022-11-20T01:16:42.907Z,18.00
2022-11-20T01:19:17.669Z,18.73
2022-11-20T01:21:49.934Z,19.52
2022-11-20T01:24:26.863Z,20.23
2022-11-20T01:26:57.925Z,17.90
2022-11-20T01:29:27.740Z,17.33
2022-11-20T01:31:57.404Z,19.63
2022-11-20T01:34:27.140Z,18.42
2022-11-20T01:36:59.512Z,24.42
2022-11-20T01:39:29.612Z,18.38
2022-11-20T01:42:18.556Z,19.05
2022-11-20T01:44:54.710Z,20.48
2022-11-20T01:47:30.773Z,19.52
2022-11-20T01:50:05.631Z,18.80
2022-11-20T01:52:38.982Z,15.13
2022-11-20T01:55:12.285Z,18.20
2022-11-20T01:57:46.752Z,19.33
2022-11-20T02:02:52.578Z,21.02
2022-11-20T02:05:27.876Z,23.70
2022-11-20T02:08:01.166Z,21.27
2022-11-20T02:10:31.352Z,21.65
2022-11-20T02:13:19.519Z,21.88
2022-11-20T02:15:48.991Z,18.83
2022-11-20T02:18:23.002Z,19.85
2022-11-20T02:20:58.947Z,22.25
2022-11-20T02:23:34.913Z,24.45
2022-11-20T02:26:13.476Z,18.67
2022-11-20T02:28:42.165Z,21.08
2022-11-20T02:31:11.622Z,22.15
2022-11-20T02:33:42.430Z,17.15
2022-11-20T02:36:16.564Z,21.58
2022-11-20T02:38:48.349Z,22.15
2022-11-20T02:41:18.958Z,17.92
2022-11-20T02:43:47.666Z,23.65
2022-11-20T02:46:18.708Z,28.80
2022-11-20T02:48:47.808Z,23.92
2022-11-20T02:51:17.651Z,20.40
2022-11-20T02:53:46.311Z,21.55
2022-11-20T02:56:15.860Z,22.38
2022-11-20T02:58:48.754Z,21.48
2022-11-20T03:03:50.391Z,19.45
2022-11-20T03:06:21.698Z,24.35
2022-11-20T03:08:50.427Z,23.20
2022-11-20T03:11:20.362Z,22.00
2022-11-20T03:13:50.678Z,23.05
2022-11-20T03:16:25.100Z,24.08
2022-11-20T03:18:54.965Z,21.52
2022-11-20T03:21:26.214Z,19.20
2022-11-20T03:23:55.509Z,18.88
2022-11-20T03:26:28.204Z,24.35
2022-11-20T03:29:00.002Z,23.65
2022-11-20T03:31:30.733Z,21.85
2022-11-20T03:34:06.904Z,23.33
2022-11-20T03:36:35.821Z,23.30
2022-11-20T03:39:05.650Z,21.75
2022-11-20T03:41:39.089Z,21.23
2022-11-20T03:44:12.694Z,25.08
2022-11-20T03:49:10.684Z,20.42
2022-11-20T03:51:42.099Z,24.70
2022-11-20T03:54:11.606Z,20.02
2022-11-20T03:56:40.833Z,20.05
2022-11-20T03:59:13.429Z,26.75
2022-11-20T04:01:44.333Z,20.48
2022-11-20T04:04:15.773Z,21.02
2022-11-20T04:06:44.999Z,24.48
2022-11-20T04:09:17.683Z,21.65
2022-11-20T04:11:46.470Z,19.98
2022-11-20T04:14:18.064Z,22.95
2022-11-20T04:16:47.054Z,21.65
2022-11-20T04:19:18.319Z,24.77
2022-11-20T04:21:47.266Z,22.33
2022-11-20T04:24:16.655Z,24.58
2022-11-20T04:26:45.770Z,22.67
2022-11-20T04:29:16.971Z,21.17
2022-11-20T04:31:45.584Z,26.17
2022-11-20T04:34:14.835Z,25.23
2022-11-20T04:36:43.512Z,23.23
2022-11-20T04:39:43.814Z,22.83
2022-11-20T04:42:31.693Z,23.65
2022-11-20T04:45:02.628Z,22.83
2022-11-20T04:47:32.144Z,23.60
2022-11-20T04:50:01.769Z,25.90
2022-11-20T04:52:31.132Z,22.63
2022-11-20T04:55:00.700Z,23.00
2022-11-20T04:57:29.847Z,24.65
2022-11-20T04:59:59.043Z,24.85
2022-11-20T05:02:29.955Z,22.90
2022-11-20T05:04:59.454Z,20.73
2022-11-20T05:07:28.739Z,21.55
2022-11-20T05:09:57.976Z,28.08
2022-11-20T05:12:27.473Z,24.55
2022-11-20T05:14:56.950Z,26.27
2022-11-20T05:17:26.214Z,22.00
2022-11-20T05:19:56.838Z,24.48
2022-11-20T05:22:28.732Z,24.00
2022-11-20T05:24:58.206Z,27.58
2022-11-20T05:27:27.683Z,24.00
2022-11-20T05:30:00.673Z,24.25
2022-11-20T05:32:29.792Z,25.98
2022-11-20T05:35:00.741Z,25.23
2022-11-20T05:37:29.915Z,24.30
2022-11-20T05:39:59.805Z,22.30
2022-11-20T05:42:34.868Z,26.33
2022-11-20T05:45:07.116Z,22.27
2022-11-20T05:47:37.251Z,25.43
2022-11-20T05:50:09.099Z,28.45
2022-11-20T05:52:38.251Z,29.00
2022-11-20T05:55:08.447Z,27.65
2022-11-20T05:57:37.939Z,25.85
2022-11-20T06:00:08.689Z,24.40
2022-11-20T06:02:38.370Z,26.67
2022-11-20T06:05:10.120Z,22.45
2022-11-20T06:07:39.557Z,21.85
2022-11-20T06:10:10.683Z,27.52
2022-11-20T06:12:40.291Z,27.23
2022-11-20T06:15:11.527Z,28.27
2022-11-20T06:17:41.538Z,26.10
2022-11-20T06:20:13.428Z,24.40
2022-11-20T06:22:43.511Z,28.30
2022-11-20T06:25:13.972Z,29.67
2022-11-20T06:27:43.993Z,25.33
2022-11-20T06:30:15.537Z,22.73
2022-11-20T06:32:46.190Z,21.27
2022-11-20T06:35:17.928Z,24.33
2022-11-20T06:40:19.510Z,31.00
2022-11-20T06:42:48.989Z,27.25
2022-11-20T06:45:18.570Z,26.98
2022-11-20T06:47:48.290Z,25.17
2022-11-20T06:50:19.357Z,23.02
2022-11-20T06:52:52.429Z,32.03
2022-11-20T06:55:21.667Z,25.40
2022-11-20T06:57:53.379Z,22.63
2022-11-20T07:00:25.381Z,23.50
2022-11-20T07:02:55.094Z,23.33
2022-11-20T07:05:25.599Z,24.38
2022-11-20T07:07:58.462Z,24.85
2022-11-20T07:10:28.180Z,26.67
2022-11-20T07:12:57.727Z,28.17
2022-11-20T07:15:29.347Z,26.67
2022-11-20T07:18:01.325Z,26.23
2022-11-20T07:20:33.769Z,53.67
2022-11-20T07:23:03.087Z,46.00
2022-11-20T07:25:32.451Z,27.90
2022-11-20T07:28:03.132Z,30.27
2022-11-20T07:30:32.773Z,26.23
2022-11-20T07:33:02.491Z,28.85
2022-11-20T07:35:36.941Z,29.02
2022-11-20T07:38:07.397Z,27.15
2022-11-20T07:40:36.833Z,25.27
2022-11-20T07:43:06.578Z,27.60
2022-11-20T07:45:38.381Z,27.40
2022-11-20T07:48:08.188Z,24.60
2022-11-20T07:50:44.262Z,26.73
2022-11-20T07:53:13.765Z,29.23
2022-11-20T07:55:46.126Z,27.98
2022-11-20T07:58:16.203Z,26.90
2022-11-20T08:00:45.301Z,26.58
2022-11-20T08:03:15.324Z,26.98
2022-11-20T08:05:49.573Z,26.80
2022-11-20T08:08:19.292Z,27.45
2022-11-20T08:10:49.868Z,29.00
2022-11-20T08:13:37.653Z,24.75
2022-11-20T08:16:07.261Z,27.00
2022-11-20T08:18:36.239Z,25.95
2022-11-20T08:21:07.984Z,30.65
2022-11-20T08:23:37.271Z,37.03
2022-11-20T08:26:07.008Z,80.45
2022-11-20T08:28:36.403Z,27.63
2022-11-20T08:31:06.090Z,24.05
2022-11-20T08:33:35.754Z,32.58
2022-11-20T08:36:07.984Z,30.48
2022-11-20T08:38:37.625Z,27.20
2022-11-20T08:41:26.710Z,26.90
2022-11-20T08:43:59.265Z,29.70
2022-11-20T08:46:34.302Z,31.88
2022-11-20T08:49:07.361Z,29.45
2022-11-20T08:51:41.333Z,29.52
2022-11-20T08:54:13.562Z,31.65
2022-11-20T08:56:42.772Z,24.58
2022-11-20T08:59:50.936Z,27.08
2022-11-20T09:02:02.405Z,29.25
2022-11-20T09:04:33.921Z,30.42
2022-11-20T09:07:05.276Z,29.40
2022-11-20T09:09:34.926Z,31.20
2022-11-20T09:12:05.244Z,29.77
2022-11-20T09:14:35.424Z,28.92
2022-11-20T09:17:06.128Z,30.90
2022-11-20T09:19:40.720Z,33.00
2022-11-20T09:22:12.167Z,29.05
2022-11-20T09:24:41.587Z,29.48
2022-11-20T09:27:12.259Z,31.48
2022-11-20T09:29:45.977Z,29.48
2022-11-20T09:32:15.360Z,29.55
2022-11-20T09:34:44.736Z,31.15
2022-11-20T09:37:15.992Z,29.90
2022-11-20T09:39:45.890Z,30.73
2022-11-20T09:42:30.200Z,29.55
2022-11-20T09:45:20.944Z,28.08
2022-11-20T09:48:02.540Z,29.63
2022-11-20T09:50:38.021Z,32.40
2022-11-20T09:53:15.752Z,35.50
2022-11-20T09:55:45.262Z,32.22
2022-11-20T09:58:25.169Z,34.65
2022-11-20T10:00:59.682Z,30.25
2022-11-20T10:03:40.006Z,37.75
2022-11-20T10:06:14.799Z,53.17
2022-11-20T10:08:50.729Z,33.22
2022-11-20T10:11:31.423Z,32.58
2022-11-20T10:14:13.052Z,33.00
2022-11-20T10:16:49.688Z,32.95
2022-11-20T10:19:35.154Z,35.90
2022-11-20T10:22:16.475Z,28.40
2022-11-20T10:24:55.207Z,31.73
2022-11-20T10:27:44.041Z,32.92
2022-11-20T10:30:15.468Z,39.17
2022-11-20T10:32:46.768Z,40.72
2022-11-20T10:35:23.346Z,41.15
2022-11-20T10:37:58.682Z,35.85
2022-11-20T10:40:37.541Z,33.70
2022-11-20T10:43:14.827Z,33.00
2022-11-20T10:45:51.505Z,39.80
2022-11-20T10:48:23.853Z,38.17
2022-11-20T10:51:01.843Z,36.33
2022-11-20T10:53:57.872Z,40.70
2022-11-20T10:56:37.694Z,36.33
2022-11-20T10:59:34.723Z,37.13
2022-11-20T11:02:17.379Z,43.10
2022-11-20T11:04:48.408Z,43.28
2022-11-20T11:07:22.331Z,38.83
2022-11-20T11:09:54.229Z,39.10
2022-11-20T11:12:27.515Z,45.47
2022-11-20T11:15:00.060Z,41.40
2022-11-20T11:17:31.259Z,41.03
2022-11-20T11:20:17.615Z,41.83
2022-11-20T11:22:49.633Z,45.33
2022-11-20T11:25:31.077Z,43.13
2022-11-20T11:28:03.333Z,42.85
2022-11-20T11:30:44.388Z,41.25
2022-11-20T11:33:21.265Z,45.28
2022-11-20T11:35:53.511Z,49.03
2022-11-20T11:38:29.638Z,41.03
2022-11-20T11:40:59.874Z,47.05
2022-11-20T11:43:50.702Z,44.13
2022-11-20T11:46:31.309Z,47.20
2022-11-20T11:49:02.058Z,42.83
2022-11-20T11:51:38.589Z,49.60
2022-11-20T11:54:16.849Z,45.88
2022-11-20T11:56:46.573Z,53.22
2022-11-20T11:59:25.751Z,53.20
2022-11-20T12:01:59.331Z,51.72
2022-11-20T12:04:45.752Z,48.72
2022-11-20T12:07:46.203Z,50.90
2022-11-20T12:10:21.950Z,58.47
2022-11-20T12:12:58.585Z,38.53
2022-11-20T12:15:36.101Z,50.13
2022-11-20T12:18:22.323Z,52.63
2022-11-20T12:21:02.531Z,55.90
2022-11-20T12:23:39.783Z,60.13
2022-11-20T12:26:22.120Z,60.33
2022-11-20T12:29:04.330Z,35.20
2022-11-20T12:32:04.851Z,51.03
2022-11-20T12:34:53.238Z,47.90
2022-11-20T12:37:35.743Z,51.60
2022-11-20T12:40:19.879Z,56.33
2022-11-20T12:43:16.828Z,56.67
2022-11-20T12:46:05.971Z,49.65
2022-11-20T12:48:49.287Z,56.42
2022-11-20T12:54:13.580Z,48.38
2022-11-20T12:56:51.244Z,47.05
2022-11-20T12:59:34.445Z,43.28
2022-11-20T13:02:16.689Z,50.13
2022-11-20T13:05:01.745Z,43.60
2022-11-20T13:07:32.672Z,49.58
2022-11-20T13:10:02.292Z,50.00
2022-11-20T13:12:36.699Z,51.08
2022-11-20T13:15:16.140Z,37.33
2022-11-20T13:17:51.198Z,57.67
2022-11-20T13:20:50.786Z,50.35
2022-11-20T13:23:27.898Z,49.65
2022-11-20T13:26:19.171Z,59.90
2022-11-20T13:28:49.641Z,56.53
2022-11-20T13:31:33.052Z,49.97
2022-11-20T13:34:05.215Z,54.15
2022-11-20T13:36:37.615Z,59.53
2022-11-20T13:39:07.368Z,63.35
2022-11-20T13:41:39.215Z,52.60
2022-11-20T13:44:15.624Z,64.07
2022-11-20T13:46:46.898Z,64.63
2022-11-20T13:49:25.055Z,67.13
2022-11-20T13:52:06.859Z,60.22
2022-11-20T13:55:01.099Z,69.15
2022-11-20T14:00:14.642Z,62.20
2022-11-20T14:02:45.132Z,68.07
2022-11-20T14:05:22.688Z,65.57
2022-11-20T14:07:55.143Z,79.90
2022-11-20T14:10:31.729Z,68.10
2022-11-20T14:13:13.101Z,81.25
2022-11-20T14:15:45.194Z,75.75
2022-11-20T14:18:23.684Z,75.22
2022-11-20T14:20:52.933Z,63.97
2022-11-20T14:23:31.211Z,77.25
2022-11-20T14:26:00.723Z,73.18
2022-11-20T14:28:33.600Z,68.03
2022-11-20T14:31:03.329Z,68.20
2022-11-20T14:33:35.889Z,82.60
2022-11-20T14:36:05.515Z,64.93
2022-11-20T14:38:36.269Z,58.55
2022-11-20T14:41:09.421Z,67.72
2022-11-20T14:46:10.913Z,67.97
2022-11-20T14:48:43.324Z,79.50
2022-11-20T14:51:13.632Z,77.22
2022-11-20T14:53:44.071Z,72.97
2022-11-20T14:56:13.250Z,78.68
2022-11-20T14:58:42.408Z,74.15
2022-11-20T15:01:15.557Z,60.38
2022-11-20T15:03:44.885Z,71.43
2022-11-20T15:06:15.059Z,72.50
2022-11-20T15:08:54.951Z,67.32
2022-11-20T15:11:32.603Z,71.18
2022-11-20T15:14:06.370Z,71.18
2022-11-20T15:16:35.914Z,68.20
2022-11-20T15:19:19.514Z,57.85
2022-11-20T15:21:48.740Z,74.68
2022-11-20T15:24:19.649Z,86.40
2022-11-20T15:26:48.811Z,99.55
2022-11-20T15:29:20.480Z,90.18
2022-11-20T15:31:52.389Z,56.13
2022-11-20T15:34:22.294Z,77.72
2022-11-20T15:36:51.746Z,78.22
2022-11-20T15:39:22.752Z,72.50
2022-11-20T15:41:52.287Z,75.60
2022-11-20T15:44:22.112Z,76.38
2022-11-20T15:46:52.065Z,83.57
2022-11-20T15:49:23.805Z,80.20
2022-11-20T15:51:57.723Z,78.63
2022-11-20T15:54:28.799Z,83.30
2022-11-20T15:56:58.139Z,83.53
2022-11-20T15:59:27.575Z,69.20
2022-11-20T16:01:57.234Z,86.40
2022-11-20T16:04:26.720Z,75.10
2022-11-20T16:06:56.252Z,70.72
2022-11-20T16:09:28.294Z,71.55
2022-11-20T16:12:44.836Z,64.88
2022-11-20T16:15:33.940Z,80.65
2022-11-20T16:18:04.728Z,68.53
2022-11-20T16:20:34.541Z,67.90
2022-11-20T16:23:07.091Z,74.60
2022-11-20T16:25:36.602Z,68.60
2022-11-20T16:28:08.662Z,63.35
2022-11-20T16:30:38.159Z,56.40
2022-11-20T16:33:12.345Z,63.38
2022-11-20T16:35:42.056Z,63.38
2022-11-20T16:38:14.054Z,53.28
2022-11-20T16:40:43.636Z,57.28
2022-11-20T16:43:16.239Z,54.15
2022-11-20T16:45:47.171Z,54.53
2022-11-20T16:48:18.474Z,54.20
2022-11-20T16:50:50.442Z,53.80
2022-11-20T16:53:20.903Z,49.53
2022-11-20T16:56:19.404Z,51.05
2022-11-20T16:58:53.337Z,47.30
2022-11-20T17:01:24.731Z,50.40
2022-11-20T17:03:58.049Z,50.53
2022-11-20T17:06:29.566Z,53.22
2022-11-20T17:09:00.132Z,47.03
2022-11-20T17:11:29.956Z,48.20
2022-11-20T17:14:02.464Z,48.15
2022-11-20T17:16:35.371Z,56.28
2022-11-20T17:19:05.744Z,46.95
2022-11-20T17:21:37.310Z,46.55
2022-11-20T17:24:09.455Z,47.10
2022-11-20T17:26:40.668Z,56.67
2022-11-20T17:29:14.082Z,50.05
2022-11-20T17:31:43.342Z,42.60
2022-11-20T17:34:14.574Z,54.53
2022-11-20T17:36:46.583Z,44.75
2022-11-20T17:39:19.527Z,54.53
2022-11-20T17:42:08.601Z,49.70
2022-11-20T17:45:08.016Z,49.75
2022-11-20T17:47:37.591Z,55.13
2022-11-20T17:50:07.378Z,46.17
2022-11-20T17:52:36.990Z,44.20
2022-11-20T17:55:11.075Z,42.80
2022-11-20T17:57:56.854Z,50.53
2022-11-20T18:00:28.618Z,44.28
2022-11-20T18:02:59.215Z,52.55
2022-11-20T18:05:28.608Z,45.95
2022-11-20T18:07:57.995Z,51.33
2022-11-20T18:10:30.975Z,46.90
2022-11-20T18:13:00.574Z,49.55
2022-11-20T18:15:31.617Z,51.35
2022-11-20T18:20:39.660Z,48.22
2022-11-20T18:23:09.444Z,41.70
2022-11-20T18:25:39.880Z,49.60
2022-11-20T18:28:09.802Z,46.42
2022-11-20T18:30:39.967Z,45.60
2022-11-20T18:33:08.669Z,51.33
2022-11-20T18:35:37.376Z,46.08
2022-11-20T18:38:08.525Z,42.10
2022-11-20T18:40:37.656Z,46.35
2022-11-20T18:43:29.607Z,39.17
2022-11-20T18:46:05.067Z,40.65
2022-11-20T18:48:33.892Z,45.85
2022-11-20T18:51:06.765Z,46.30
2022-11-20T18:53:36.246Z,43.58
2022-11-20T18:56:05.592Z,44.28
2022-11-20T18:58:34.432Z,40.17
2022-11-20T19:01:08.388Z,47.47
2022-11-20T19:03:37.463Z,48.80
2022-11-20T19:06:06.949Z,37.95
2022-11-20T19:08:36.809Z,44.28
2022-11-20T19:11:09.999Z,42.58
2022-11-20T19:13:39.967Z,42.03
2022-11-20T19:16:14.428Z,43.25
2022-11-20T19:18:45.493Z,42.13
2022-11-20T19:21:16.055Z,38.65
2022-11-20T19:23:48.453Z,38.08
2022-11-20T19:26:18.198Z,39.38
2022-11-20T19:28:49.751Z,37.88
2022-11-20T19:31:24.624Z,49.78
2022-11-20T19:33:57.188Z,45.78
2022-11-20T19:36:27.802Z,40.60
2022-11-20T19:38:57.174Z,43.97
2022-11-20T19:41:31.661Z,47.08
2022-11-20T19:44:02.393Z,38.00
2022-11-20T19:46:33.867Z,41.25
2022-11-20T19:49:04.832Z,44.20
2022-11-20T19:51:36.464Z,41.90
2022-11-20T19:54:06.373Z,39.63
2022-11-20T19:56:35.851Z,39.83
2022-11-20T19:59:04.847Z,40.83
2022-11-20T20:01:39.321Z,42.50
2022-11-20T20:04:09.067Z,46.35
2022-11-20T20:06:40.034Z,44.35
2022-11-20T20:09:13.218Z,45.17
2022-11-20T20:11:46.802Z,45.17
2022-11-20T20:14:18.396Z,38.15
2022-11-20T20:16:49.297Z,45.00
2022-11-20T20:19:20.030Z,42.40
2022-11-20T20:21:51.036Z,37.03
2022-11-20T20:24:21.112Z,41.55
2022-11-20T20:26:51.577Z,45.38
2022-11-20T20:29:24.481Z,44.28
2022-11-20T20:31:55.688Z,44.80
2022-11-20T20:34:29.633Z,43.42
2022-11-20T20:36:58.909Z,48.95
2022-11-20T20:39:29.283Z,43.92
2022-11-20T20:41:58.873Z,45.03
2022-11-20T20:44:45.126Z,48.78
2022-11-20T20:47:15.173Z,44.75
2022-11-20T20:49:44.836Z,39.25
2022-11-20T20:52:14.980Z,44.05
2022-11-20T20:54:44.825Z,39.30
2022-11-20T20:57:13.971Z,43.97
2022-11-20T20:59:42.614Z,34.67
2022-11-20T21:02:12.452Z,42.08
2022-11-20T21:04:43.333Z,41.22
2022-11-20T21:07:13.147Z,39.65
2022-11-20T21:09:45.027Z,40.85
2022-11-20T21:12:13.875Z,35.70
2022-11-20T21:14:42.778Z,57.88
2022-11-20T21:17:15.366Z,65.07
2022-11-20T21:19:45.865Z,66.65
2022-11-20T21:22:13.613Z,43.60
2022-11-20T21:24:43.385Z,42.15
2022-11-20T21:27:13.951Z,42.60
2022-11-20T21:29:42.818Z,47.92
2022-11-20T21:32:40.775Z,46.95
2022-11-20T21:35:11.827Z,48.05
2022-11-20T21:37:41.999Z,42.95
2022-11-20T21:40:11.705Z,43.10
2022-11-20T21:42:41.473Z,45.90
2022-11-20T21:45:11.185Z,38.83
2022-11-20T21:47:41.162Z,39.28
2022-11-20T21:50:12.404Z,48.70
2022-11-20T21:55:12.961Z,48.28
2022-11-20T21:57:42.233Z,46.25
2022-11-20T22:00:14.151Z,49.25
2022-11-20T22:02:43.705Z,54.33
2022-11-20T22:05:14.299Z,55.00
2022-11-20T22:07:45.928Z,55.25
2022-11-20T22:10:18.426Z,48.20
2022-11-20T22:12:48.211Z,49.60
2022-11-20T22:15:33.021Z,51.00
2022-11-20T22:18:15.767Z,59.78
2022-11-20T22:20:47.222Z,48.08
2022-11-20T22:23:16.661Z,52.58
2022-11-20T22:25:46.367Z,58.05
2022-11-20T22:28:16.409Z,60.72
2022-11-20T22:30:47.124Z,48.58
2022-11-20T22:33:17.555Z,51.28
2022-11-20T22:35:48.833Z,47.65
2022-11-20T22:38:18.852Z,49.10
2022-11-20T22:40:48.857Z,49.20
2022-11-20T22:43:18.316Z,48.05
2022-11-20T22:45:47.888Z,47.38
2022-11-20T22:48:16.902Z,56.38
2022-11-20T22:50:48.020Z,51.70
2022-11-20T22:53:17.635Z,48.20
2022-11-20T22:55:50.730Z,49.22
2022-11-20T22:58:21.052Z,50.40
2022-11-20T23:00:50.374Z,49.83
2022-11-20T23:03:20.538Z,50.63
2022-11-20T23:05:51.235Z,58.17
2022-11-20T23:08:20.946Z,56.55
2022-11-20T23:10:52.911Z,56.43
2022-11-20T23:13:23.091Z,53.33
2022-11-20T23:15:53.070Z,51.42
2022-11-20T23:18:24.624Z,53.60
2022-11-20T23:20:55.361Z,52.88
2022-11-20T23:23:24.176Z,55.40
2022-11-20T23:25:55.923Z,53.53
2022-11-20T23:28:24.916Z,53.83
2022-11-20T23:30:56.085Z,54.05
2022-11-20T23:33:25.386Z,50.10
2022-11-20T23:35:58.385Z,52.28
2022-11-20T23:38:27.973Z,62.33
2022-11-20T23:40:57.160Z,58.63
2022-11-20T23:43:26.465Z,53.53
2022-11-20T23:45:57.898Z,56.90
2022-11-20T23:48:28.757Z,57.90
2022-11-20T23:50:59.446Z,59.50
2022-11-20T23:53:29.614Z,57.00
2022-11-20T23:56:00.796Z,61.67
2022-11-20T23:58:33.491Z,55.97
